Time;durP1;ratioP1;P1;durP2;ratioP2;P2;SDS_P1;SDS_P2;PMS_P1;PMS_P2;Temp;Humidity;BMP_temperature;BMP_pressure;BME280_temperature;BME280_humidity;BME280_pressure;Samples;Min_cycle;Max_cycle;Signal;HPM_P1;HPM_P2
2022/03/02 00:02:14;;;;;;;27.40;18.05;;;;;;;4.87;64.06;102557.88;5034694;28;20131;-61
2022/03/02 00:04:40;;;;;;;32.15;20.65;;;;;;;4.86;63.77;102554.34;5035181;28;20033;-61
2022/03/02 00:07:05;;;;;;;29.08;19.30;;;;;;;4.84;64.71;102558.78;5034610;28;20475;-61
2022/03/02 00:09:30;;;;;;;29.05;18.95;;;;;;;4.80;63.87;102555.38;5034271;28;20076;-61
2022/03/02 00:11:57;;;;;;;26.95;18.90;;;;;;;4.78;63.82;102554.56;5034973;28;20038;-61
2022/03/02 00:14:22;;;;;;;29.67;20.02;;;;;;;4.74;64.25;102559.94;5034281;28;20084;-61
2022/03/02 00:16:47;;;;;;;30.23;19.55;;;;;;;4.70;64.23;102553.88;5034787;28;20045;-61
2022/03/02 00:19:13;;;;;;;30.42;20.60;;;;;;;4.67;64.01;102559.22;5033641;28;20044;-61
2022/03/02 00:21:38;;;;;;;28.20;19.10;;;;;;;4.67;64.03;102559.22;5052043;28;20040;-61
2022/03/02 00:24:04;;;;;;;26.30;19.52;;;;;;;4.62;64.37;102563.72;5054139;28;20049;-61
2022/03/02 00:26:30;;;;;;;30.60;19.40;;;;;;;4.58;64.08;102565.56;5035953;28;20475;-62
2022/03/02 00:28:56;;;;;;;29.98;19.73;;;;;;;4.56;64.68;102566.50;5050095;28;20198;-61
2022/03/02 00:31:21;;;;;;;30.27;20.15;;;;;;;4.51;64.24;102563.97;5034209;28;20128;-61
2022/03/02 00:33:46;;;;;;;28.60;20.38;;;;;;;4.49;63.90;102559.66;5043745;28;20037;-61
2022/03/02 00:36:12;;;;;;;30.02;21.55;;;;;;;4.47;63.89;102554.44;5053884;28;20041;-62
2022/03/02 00:38:37;;;;;;;30.30;20.48;;;;;;;4.43;63.68;102547.53;5053825;28;20459;-62
2022/03/02 00:41:03;;;;;;;32.15;20.70;;;;;;;4.41;63.01;102551.94;5049513;28;20045;-62
2022/03/02 00:43:28;;;;;;;29.35;19.45;;;;;;;4.37;62.82;102555.56;5033689;28;20048;-61
2022/03/02 00:45:53;;;;;;;29.90;20.13;;;;;;;4.35;62.69;102552.09;5033855;28;20045;-62
2022/03/02 00:48:19;;;;;;;30.42;19.85;;;;;;;4.32;62.44;102552.16;5033765;28;20090;-61
2022/03/02 00:50:44;;;;;;;28.13;20.13;;;;;;;4.30;62.64;102552.19;5034205;28;20399;-61
2022/03/02 00:53:10;;;;;;;32.42;20.38;;;;;;;4.25;62.95;102554.91;5033923;28;20049;-61
2022/03/02 00:55:36;;;;;;;27.27;19.02;;;;;;;4.24;62.69;102553.19;5033599;28;20364;-61
2022/03/02 00:58:03;;;;;;;28.52;20.13;;;;;;;4.19;62.67;102555.06;5033559;28;20501;-61
2022/03/02 01:00:28;;;;;;;29.65;19.50;;;;;;;4.19;62.79;102548.94;5053289;28;20116;-61
2022/03/02 01:02:54;;;;;;;30.25;19.77;;;;;;;4.15;62.66;102547.28;5053480;28;20120;-61
2022/03/02 01:05:19;;;;;;;30.52;19.98;;;;;;;4.14;62.63;102537.66;5053255;28;20466;-62
2022/03/02 01:07:45;;;;;;;31.52;19.80;;;;;;;4.12;62.50;102529.78;5050798;28;20056;-61
2022/03/02 01:10:11;;;;;;;30.70;19.98;;;;;;;4.08;62.73;102534.25;5015554;28;20035;-62
2022/03/02 01:12:37;;;;;;;29.45;20.13;;;;;;;4.07;63.00;102526.41;5033517;28;20029;-61
2022/03/02 01:15:04;;;;;;;26.65;18.70;;;;;;;4.07;62.69;102529.03;5033267;28;20041;-62
2022/03/02 01:17:30;;;;;;;28.05;18.88;;;;;;;4.07;62.70;102527.25;5035206;28;20068;-62
2022/03/02 01:19:55;;;;;;;26.33;19.08;;;;;;;4.03;62.96;102520.34;5053306;28;20112;-61
2022/03/02 01:22:21;;;;;;;27.23;19.98;;;;;;;4.01;62.63;102521.28;5053316;28;20064;-61
2022/03/02 01:24:46;;;;;;;26.92;19.00;;;;;;;4.00;62.47;102522.19;5053434;28;20044;-61
2022/03/02 01:27:11;;;;;;;25.65;18.40;;;;;;;3.98;62.36;102518.72;5039284;28;20045;-61
2022/03/02 01:29:36;;;;;;;27.55;18.92;;;;;;;3.95;62.14;102519.66;5033270;28;20396;-61
2022/03/02 01:32:08;;;;;;;27.85;18.98;;;;;;;3.93;62.18;102515.31;5035650;28;20048;-62
2022/03/02 01:34:34;;;;;;;30.80;19.73;;;;;;;3.90;62.17;102518.91;5043790;28;20041;-61
2022/03/02 01:37:00;;;;;;;23.55;17.50;;;;;;;3.87;62.21;102508.44;5057196;28;20044;-61
2022/03/02 01:39:25;;;;;;;33.17;19.58;;;;;;;3.83;62.96;102502.41;5057207;28;20107;-62
2022/03/02 01:41:51;;;;;;;29.27;19.55;;;;;;;3.82;62.72;102510.31;5048593;28;20120;-61
2022/03/02 01:44:16;;;;;;;30.27;20.02;;;;;;;3.78;62.54;102508.63;5037070;28;20042;-61
2022/03/02 01:46:42;;;;;;;28.88;19.38;;;;;;;3.75;62.64;102512.19;5037574;28;20356;-61
2022/03/02 01:49:08;;;;;;;29.33;19.23;;;;;;;3.74;63.08;102509.59;5036843;28;20422;-61
2022/03/02 01:51:33;;;;;;;30.83;19.77;;;;;;;3.71;62.89;102507.91;5036925;28;20045;-62
2022/03/02 01:53:59;;;;;;;29.20;20.15;;;;;;;3.69;62.90;102507.91;5036942;28;20033;-61
2022/03/02 01:56:24;;;;;;;29.00;18.95;;;;;;;3.65;63.14;102506.28;5037240;28;20033;-60
2022/03/02 01:58:50;;;;;;;30.95;19.00;;;;;;;3.65;63.11;102503.66;5036766;28;20387;-61
2022/03/02 02:01:16;;;;;;;27.50;19.65;;;;;;;3.62;63.43;102506.34;5037557;28;20057;-62
2022/03/02 02:03:42;;;;;;;30.33;19.05;;;;;;;3.61;63.83;102504.59;5036570;28;20048;-61
2022/03/02 02:06:08;;;;;;;28.95;19.48;;;;;;;3.58;64.12;102503.78;5037398;28;20046;-62
2022/03/02 02:08:34;;;;;;;30.70;18.95;;;;;;;3.55;63.66;102495.97;5036635;28;20045;-62
2022/03/02 02:11:00;;;;;;;27.80;19.38;;;;;;;3.52;63.90;102496.91;5036712;28;20129;-62
2022/03/02 02:13:27;;;;;;;28.90;18.90;;;;;;;3.50;63.81;102491.69;5036585;28;20041;-62
2022/03/02 02:15:54;;;;;;;25.90;18.92;;;;;;;3.49;63.29;102489.94;5037077;28;20124;-61
2022/03/02 02:18:19;;;;;;;26.42;19.17;;;;;;;3.49;63.62;102481.22;5036592;28;20041;-62
2022/03/02 02:20:45;;;;;;;29.17;18.70;;;;;;;3.47;63.64;102483.00;5036365;28;20034;-61
2022/03/02 02:23:11;;;;;;;29.45;19.45;;;;;;;3.44;63.53;102483.91;5036998;28;20057;-62
2022/03/02 02:25:36;;;;;;;28.58;19.35;;;;;;;3.43;63.18;102478.69;5036198;28;20049;-62
2022/03/02 02:28:02;;;;;;;25.92;19.00;;;;;;;3.42;63.29;102479.63;5036455;28;20087;-61
2022/03/02 02:30:29;;;;;;;27.65;18.60;;;;;;;3.39;63.52;102484.94;5036352;28;20029;-62
2022/03/02 02:32:54;;;;;;;29.17;19.10;;;;;;;3.37;63.96;102478.84;5036157;28;20033;-61
2022/03/02 02:35:20;;;;;;;28.08;18.48;;;;;;;3.36;63.54;102475.34;5036746;28;20090;-62
2022/03/02 02:37:45;;;;;;;27.92;18.23;;;;;;;3.35;63.08;102478.88;5044473;28;20035;-62
2022/03/02 02:40:16;;;;;;;30.33;19.45;;;;;;;3.35;63.05;102471.00;5056143;28;20075;-61
2022/03/02 02:42:44;;;;;;;28.30;19.38;;;;;;;3.33;63.20;102471.03;5041348;28;20059;-62
2022/03/02 02:45:14;;;;;;;29.27;19.20;;;;;;;3.33;63.00;102467.50;5036170;28;20037;-61
2022/03/02 02:47:40;;;;;;;27.95;18.42;;;;;;;3.34;63.42;102464.00;5035925;28;20396;-62
2022/03/02 02:50:19;;;;;;;27.98;17.45;;;;;;;3.34;63.48;102462.22;5036389;28;20068;-61
2022/03/02 02:52:45;;;;;;;27.10;17.85;;;;;;;3.33;62.96;102457.00;5035884;28;20418;-62
2022/03/02 02:55:12;;;;;;;27.15;18.63;;;;;;;3.33;62.87;102463.16;5035873;28;20037;-62
2022/03/02 02:57:37;;;;;;;28.40;18.65;;;;;;;3.31;63.06;102466.69;5036053;28;20033;-62
2022/03/02 03:00:10;;;;;;;26.58;17.80;;;;;;;3.32;62.71;102468.44;5035810;28;20549;-62
2022/03/02 03:02:35;;;;;;;28.55;18.13;;;;;;;3.30;62.81;102460.56;5036286;28;20092;-62
2022/03/02 03:05:00;;;;;;;26.00;17.88;;;;;;;3.31;63.08;102467.56;5035877;28;20030;-62
2022/03/02 03:07:26;;;;;;;26.60;17.65;;;;;;;3.31;62.87;102464.94;5035608;28;20117;-62
2022/03/02 03:09:51;;;;;;;27.20;17.45;;;;;;;3.31;62.81;102464.06;5054005;28;20116;-62
2022/03/02 03:12:17;;;;;;;28.55;18.17;;;;;;;3.31;62.81;102461.44;5055340;28;20463;-62
2022/03/02 03:14:42;;;;;;;26.60;17.55;;;;;;;3.31;62.16;102461.44;5055327;28;20049;-62
2022/03/02 03:17:07;;;;;;;28.23;17.60;;;;;;;3.30;62.04;102460.56;5055197;28;20043;-62
2022/03/02 03:19:33;;;;;;;27.63;17.98;;;;;;;3.31;62.06;102458.81;5055352;28;20390;-62
2022/03/02 03:22:06;;;;;;;24.38;16.83;;;;;;;3.31;61.69;102456.19;5055260;28;20482;-62
2022/03/02 03:24:32;;;;;;;26.45;17.48;;;;;;;3.30;61.98;102449.22;5052111;28;20667;-63
2022/03/02 03:26:57;;;;;;;31.92;17.85;;;;;;;3.27;61.57;102452.75;5125633;23;20078;-93
2022/03/02 03:29:23;;;;;;;25.73;16.48;;;;;;;3.21;61.36;102431.84;5084473;28;20491;-93
2022/03/02 03:31:48;;;;;;;29.65;18.05;;;;;;;3.21;61.32;102441.50;5087245;28;20032;-92
2022/03/02 03:34:13;;;;;;;24.83;16.80;;;;;;;3.21;61.58;102439.75;5086009;28;20024;-92
2022/03/02 03:36:41;;;;;;;24.95;16.50;;;;;;;3.23;60.85;102455.47;5104218;28;20036;-92
2022/03/02 03:39:09;;;;;;;25.45;16.63;;;;;;;3.25;60.72;102453.69;5086259;28;20032;-92
2022/03/02 03:41:37;;;;;;;23.60;16.17;;;;;;;3.29;60.14;102455.34;5104118;28;20036;-92
2022/03/02 03:44:03;;;;;;;23.75;16.52;;;;;;;3.23;60.21;102440.59;5111946;28;20473;-90
2022/03/02 03:46:28;;;;;;;22.50;16.13;;;;;;;3.21;59.98;102442.38;5110316;28;20048;-93
2022/03/02 03:48:56;;;;;;;22.83;15.38;;;;;;;3.19;60.17;102438.06;5107617;28;20031;-91
2022/03/02 03:51:21;;;;;;;23.55;16.08;;;;;;;3.20;60.45;102439.75;5106904;28;20028;-91
2022/03/02 03:53:47;;;;;;;24.70;15.77;;;;;;;3.20;59.68;102440.66;5086480;28;20568;-91
2022/03/02 03:56:12;;;;;;;25.00;15.30;;;;;;;3.22;59.67;102444.09;5103470;28;20032;-91
2022/03/02 03:58:37;;;;;;;23.20;15.73;;;;;;;3.18;59.99;102437.19;5104846;28;20058;-90
2022/03/02 04:01:03;;;;;;;23.85;16.33;;;;;;;3.13;59.84;102421.53;5112701;28;20024;-91
2022/03/02 04:03:29;;;;;;;25.83;15.48;;;;;;;3.18;59.54;102433.69;5100884;28;20024;-91
2022/03/02 04:05:54;;;;;;;24.10;15.95;;;;;;;3.22;59.80;102438.00;5106353;28;20044;-91
2022/03/02 04:08:20;;;;;;;22.50;14.98;;;;;;;3.17;60.04;102430.22;5091866;28;20032;-92
2022/03/02 04:10:45;;;;;;;22.90;15.63;;;;;;;3.15;59.49;102430.25;5083444;28;20028;-91
2022/03/02 04:13:12;;;;;;;22.80;15.70;;;;;;;3.14;60.12;102428.50;5082203;28;20032;-92
2022/03/02 04:15:38;;;;;;;22.40;14.65;;;;;;;3.14;58.84;102425.00;5101341;28;20048;-90
2022/03/02 04:18:07;;;;;;;25.73;14.85;;;;;;;3.13;58.69;102423.28;5081952;28;20049;-90
2022/03/02 04:20:34;;;;;;;24.48;15.32;;;;;;;3.15;58.92;102413.63;5081476;28;20379;-90
2022/03/02 04:23:00;;;;;;;22.10;14.65;;;;;;;3.11;59.01;102412.84;5080374;28;20036;-92
2022/03/02 04:25:25;;;;;;;22.38;15.15;;;;;;;3.09;58.53;102408.50;5098147;28;20062;-91
2022/03/02 04:27:53;;;;;;;24.58;15.63;;;;;;;3.08;59.00;102407.63;5099581;28;20055;-91
2022/03/02 04:30:19;;;;;;;24.35;15.98;;;;;;;3.07;59.01;102411.16;5081266;28;20035;-91
2022/03/02 04:32:44;;;;;;;24.85;15.07;;;;;;;3.06;58.90;102411.19;5099083;28;20040;-91
2022/03/02 04:35:11;;;;;;;24.02;15.38;;;;;;;3.00;58.86;102401.66;5099060;28;20032;-92
2022/03/02 04:37:38;;;;;;;23.58;14.98;;;;;;;3.07;59.06;102419.03;5099302;28;20054;-91
2022/03/02 04:40:14;;;;;;;23.63;14.60;;;;;;;3.04;58.60;102411.19;5099521;28;20032;-92
2022/03/02 04:42:40;;;;;;;22.17;14.80;;;;;;;3.05;59.27;102404.19;5081337;28;20035;-92
2022/03/02 04:45:06;;;;;;;20.40;14.82;;;;;;;2.99;59.25;102405.19;5099061;28;20039;-92
2022/03/02 04:47:32;;;;;;;22.58;15.52;;;;;;;2.94;59.18;102394.78;5080499;28;20032;-92
2022/03/02 04:49:57;;;;;;;24.42;14.68;;;;;;;2.95;59.33;102396.50;5081374;28;20036;-92
2022/03/02 04:52:23;;;;;;;21.10;14.10;;;;;;;2.98;58.90;102408.69;5099823;28;20030;-92
2022/03/02 04:55:06;;;;;;;22.13;15.05;;;;;;;2.99;59.28;102407.81;5081256;28;20042;-92
2022/03/02 04:57:41;;;;;;;23.52;15.35;;;;;;;2.96;58.66;102400.88;5099330;28;20032;-91
2022/03/02 05:00:10;;;;;;;22.02;14.82;;;;;;;2.97;58.73;102392.09;5089565;28;20087;-92
2022/03/02 05:02:36;;;;;;;24.92;14.95;;;;;;;2.96;58.98;102393.00;5082356;28;20032;-91
2022/03/02 05:05:02;;;;;;;21.13;13.68;;;;;;;2.94;58.98;102394.78;5080964;28;20035;-90
2022/03/02 05:07:27;;;;;;;20.00;14.00;;;;;;;2.91;59.29;102383.47;5081660;28;20179;-91
2022/03/02 05:09:53;;;;;;;21.17;15.38;;;;;;;2.90;59.07;102387.00;5083557;28;20440;-92
2022/03/02 05:12:18;;;;;;;21.55;13.95;;;;;;;2.84;58.60;102377.47;5086733;28;20047;-91
2022/03/02 05:14:44;;;;;;;24.88;14.48;;;;;;;2.90;58.88;102387.00;5090655;28;20036;-92
2022/03/02 05:17:09;;;;;;;25.52;14.50;;;;;;;2.91;58.37;102393.97;5092146;28;20040;-91
2022/03/02 05:19:39;;;;;;;23.50;13.73;;;;;;;2.82;58.68;102373.16;5087261;28;20060;-90
2022/03/02 05:22:10;;;;;;;23.10;14.70;;;;;;;2.85;58.79;102386.19;5087561;28;20032;-91
2022/03/02 05:24:36;;;;;;;22.83;14.43;;;;;;;2.81;58.88;102382.78;5100537;28;20040;-92
2022/03/02 05:27:01;;;;;;;20.40;13.68;;;;;;;2.81;58.58;102381.91;5102890;28;20058;-93
2022/03/02 05:29:27;;;;;;;21.15;14.27;;;;;;;2.83;59.01;102386.25;5089687;28;20063;-92
2022/03/02 05:31:52;;;;;;;24.00;14.70;;;;;;;2.81;58.95;102387.16;5088125;28;20028;-91
2022/03/02 05:34:18;;;;;;;22.42;14.40;;;;;;;2.78;58.92;102378.47;5085589;28;20103;-91
2022/03/02 05:36:45;;;;;;;24.38;14.07;;;;;;;2.73;58.68;102374.19;5084247;28;20043;-90
2022/03/02 05:39:11;;;;;;;21.05;13.88;;;;;;;2.78;58.68;102378.47;5082191;28;20146;-91
2022/03/02 05:41:39;;;;;;;20.23;13.55;;;;;;;2.80;58.40;102380.19;5100673;28;20474;-92
2022/03/02 05:44:07;;;;;;;21.88;13.98;;;;;;;2.73;58.70;102374.19;5081541;28;20548;-92
2022/03/02 05:46:36;;;;;;;20.50;13.80;;;;;;;2.71;58.60;102370.72;5081354;28;20035;-91
2022/03/02 05:49:03;;;;;;;25.65;13.10;;;;;;;2.75;58.85;102378.53;5081318;28;20032;-92
2022/03/02 05:51:30;;;;;;;22.52;14.23;;;;;;;2.75;58.92;102378.53;5099598;28;20071;-92
2022/03/02 05:53:59;;;;;;;22.85;13.48;;;;;;;2.74;58.64;102375.94;5083122;28;20048;-92
2022/03/02 05:56:25;;;;;;;19.25;13.02;;;;;;;2.68;58.50;102366.44;5084849;28;20055;-91
2022/03/02 05:58:53;;;;;;;23.92;13.98;;;;;;;2.66;58.17;102365.56;5084907;28;20043;-92
2022/03/02 06:01:20;;;;;;;21.98;14.27;;;;;;;2.64;59.42;102364.75;5084887;28;20032;-91
2022/03/02 06:03:45;;;;;;;23.70;15.35;;;;;;;2.68;58.36;102370.78;5083751;28;20036;-93
2022/03/02 06:06:13;;;;;;;22.40;13.85;;;;;;;2.68;58.03;102370.78;5083717;28;20032;-91
2022/03/02 06:08:45;;;;;;;23.50;14.15;;;;;;;2.62;57.85;102369.16;5085782;28;20122;-91
2022/03/02 06:11:11;;;;;;;25.30;14.70;;;;;;;2.65;57.63;102376.09;5085254;28;20033;-92
2022/03/02 06:13:36;;;;;;;22.05;13.20;;;;;;;2.63;57.68;102376.16;5100964;28;20039;-91
2022/03/02 06:16:05;;;;;;;23.10;14.15;;;;;;;2.63;57.46;102375.25;5079229;28;20085;-92
2022/03/02 06:18:31;;;;;;;21.67;13.98;;;;;;;2.67;57.60;102383.06;5101651;28;20043;-91
2022/03/02 06:21:01;;;;;;;19.55;13.27;;;;;;;2.65;57.64;102386.59;5119086;28;20020;-91
2022/03/02 06:23:30;;;;;;;21.02;13.65;;;;;;;2.62;57.45;102382.28;5085530;28;20036;-92
2022/03/02 06:25:56;;;;;;;21.90;13.68;;;;;;;2.63;57.67;102386.66;5108107;28;20044;-92
2022/03/02 06:28:24;;;;;;;23.90;14.13;;;;;;;2.63;57.95;102394.50;5104216;28;20097;-91
2022/03/02 06:30:51;;;;;;;26.40;15.40;;;;;;;2.53;57.42;102372.81;5085229;28;20059;-91
2022/03/02 06:33:19;;;;;;;20.85;14.23;;;;;;;2.62;57.16;102387.53;5086056;28;20402;-92
2022/03/02 06:35:50;;;;;;;20.52;14.43;;;;;;;2.58;57.56;102383.22;5086438;28;20032;-91
2022/03/02 06:38:47;;;;;;;21.90;13.25;;;;;;;2.53;57.42;102380.69;5086331;28;20039;-91
2022/03/02 06:41:28;;;;;;;25.85;16.13;;;;;;;2.51;58.04;102376.34;5094986;28;20103;-91
2022/03/02 06:44:04;;;;;;;21.45;15.00;;;;;;;2.54;57.40;102382.41;5093679;28;20440;-92
2022/03/02 06:46:46;;;;;;;25.35;14.82;;;;;;;2.55;57.05;102386.78;5092304;28;20040;-92
2022/03/02 06:49:25;;;;;;;22.17;12.63;;;;;;;2.55;57.55;102392.03;5106011;28;20401;-91
2022/03/02 06:51:59;;;;;;;18.92;12.25;;;;;;;2.56;57.16;102403.38;5090860;28;20067;-91
2022/03/02 06:54:31;;;;;;;19.45;12.82;;;;;;;2.52;56.98;102397.31;5089910;28;20127;-92
2022/03/02 06:57:02;;;;;;;20.17;12.35;;;;;;;2.51;56.76;102397.34;5111552;28;20036;-92
2022/03/02 06:59:38;;;;;;;18.73;12.80;;;;;;;2.55;56.90;102401.66;5112851;28;20043;-92
2022/03/02 07:02:05;;;;;;;19.30;12.38;;;;;;;2.53;56.69;102400.78;5098045;28;20032;-94
2022/03/02 07:04:43;;;;;;;19.52;12.35;;;;;;;2.53;57.09;102390.31;5094810;28;20054;-92
2022/03/02 07:07:15;;;;;;;19.35;14.02;;;;;;;2.55;56.57;102396.41;5090551;28;20036;-94
2022/03/02 07:09:40;;;;;;;20.27;13.05;;;;;;;2.62;57.08;102410.28;5103968;28;20554;-92
2022/03/02 07:12:06;;;;;;;19.02;12.57;;;;;;;2.62;56.47;102402.41;5097753;28;20016;-91
2022/03/02 07:14:36;;;;;;;21.65;13.57;;;;;;;2.56;57.22;102398.13;5099604;28;20019;-92
2022/03/02 07:17:04;;;;;;;22.33;14.68;;;;;;;2.53;56.79;102388.56;5084566;28;20091;-91
2022/03/02 07:19:29;;;;;;;24.63;14.70;;;;;;;2.58;56.78;102396.31;5110505;28;20032;-92
2022/03/02 07:21:58;;;;;;;20.65;13.40;;;;;;;2.62;56.28;102394.53;5113159;28;20043;-92
2022/03/02 07:24:23;;;;;;;23.08;12.20;;;;;;;2.66;56.35;102404.91;5087571;28;20047;-91
2022/03/02 07:26:55;;;;;;;22.45;12.82;;;;;;;2.69;56.55;102411.88;5082249;28;20040;-91
2022/03/02 07:29:23;;;;;;;23.40;13.70;;;;;;;2.66;56.50;102402.28;5081001;28;20036;-92
2022/03/02 07:31:51;;;;;;;20.15;12.88;;;;;;;2.68;56.27;102402.28;5085228;28;20032;-92
2022/03/02 07:34:17;;;;;;;19.95;13.23;;;;;;;2.68;56.85;102408.41;5105172;28;20036;-91
2022/03/02 07:36:55;;;;;;;20.10;13.23;;;;;;;2.72;56.85;102409.22;5111912;28;20063;-93
2022/03/02 07:39:22;;;;;;;20.00;13.30;;;;;;;2.84;55.99;102418.59;5095339;28;20059;-91
2022/03/02 07:41:48;;;;;;;19.15;13.40;;;;;;;2.85;56.31;102413.34;5111379;28;20036;-90
2022/03/02 07:44:18;;;;;;;20.92;13.45;;;;;;;2.83;55.51;102404.63;5090770;28;20032;-91
2022/03/02 07:46:43;;;;;;;20.15;13.00;;;;;;;2.86;56.22;102398.44;5099557;28;20039;-92
2022/03/02 07:49:09;;;;;;;20.85;13.00;;;;;;;2.96;55.90;102402.63;5089707;28;20032;-93
2022/03/02 07:51:38;;;;;;;17.88;12.52;;;;;;;2.96;55.84;102400.88;5110956;28;20055;-93
2022/03/02 07:54:04;;;;;;;20.98;13.75;;;;;;;2.95;55.90;102385.16;5093868;28;20055;-91
2022/03/02 07:56:32;;;;;;;20.58;13.38;;;;;;;3.01;55.36;102400.75;5076779;28;20065;-92
2022/03/02 07:59:03;;;;;;;22.42;13.32;;;;;;;3.09;55.02;102398.84;5085179;28;20107;-92
2022/03/02 08:01:31;;;;;;;23.90;13.65;;;;;;;3.14;55.53;102390.88;5104738;28;20035;-92
2022/03/02 08:03:57;;;;;;;22.42;13.18;;;;;;;3.17;55.94;102389.97;5085500;28;20043;-91
2022/03/02 08:06:26;;;;;;;22.40;12.43;;;;;;;3.20;54.69;102384.63;5085670;28;20036;-93
2022/03/02 08:08:54;;;;;;;23.10;13.02;;;;;;;3.30;55.32;102381.78;5077190;28;20071;-93
2022/03/02 08:11:19;;;;;;;20.27;13.48;;;;;;;3.34;54.74;102372.94;5099996;28;20043;-94
2022/03/02 08:13:45;;;;;;;18.23;12.40;;;;;;;3.51;53.86;102383.09;5117434;28;20040;-93
2022/03/02 08:16:10;;;;;;;23.67;13.13;;;;;;;3.57;53.18;102376.81;5095483;28;20040;-92
2022/03/02 08:18:36;;;;;;;24.55;13.65;;;;;;;3.69;54.09;102367.78;5095418;28;20097;-93
2022/03/02 08:21:02;;;;;;;20.48;12.35;;;;;;;3.89;53.30;102380.47;5093266;28;20035;-91
2022/03/02 08:23:41;;;;;;;20.30;12.68;;;;;;;4.00;53.83;102367.94;5090685;28;20043;-93
2022/03/02 08:26:07;;;;;;;21.97;12.63;;;;;;;4.28;53.31;102390.03;5099663;28;20112;-93
2022/03/02 08:28:35;;;;;;;19.42;12.10;;;;;;;4.44;51.32;102384.34;5113161;28;20052;-92
2022/03/02 08:31:00;;;;;;;18.98;12.45;;;;;;;4.61;50.92;102380.41;5092307;28;20477;-93
2022/03/02 08:33:31;;;;;;;17.63;12.02;;;;;;;4.80;50.84;102376.38;5113215;28;20036;-93
2022/03/02 08:35:57;;;;;;;17.88;11.88;;;;;;;4.96;51.33;102378.56;5094299;28;20032;-94
2022/03/02 08:38:24;;;;;;;18.20;12.07;;;;;;;5.11;51.13;102367.63;5090554;28;20403;-91
2022/03/02 08:40:51;;;;;;;20.52;12.35;;;;;;;5.31;49.57;102372.28;5090407;28;20063;-93
2022/03/02 08:43:17;;;;;;;19.67;12.82;;;;;;;5.48;48.30;102384.06;5092206;28;20036;-91
2022/03/02 08:45:51;;;;;;;19.48;12.43;;;;;;;5.66;49.15;102380.00;5072074;28;20043;-93
2022/03/02 08:48:19;;;;;;;18.50;11.88;;;;;;;5.80;48.37;102362.00;5089722;28;20062;-91
2022/03/02 08:50:47;;;;;;;20.73;12.18;;;;;;;5.96;46.98;102365.00;5104249;28;20032;-92
2022/03/02 08:53:15;;;;;;;22.08;12.48;;;;;;;6.17;47.12;102367.88;5086652;28;20048;-94
2022/03/02 08:55:44;;;;;;;18.33;12.15;;;;;;;6.31;46.70;102360.31;5095700;28;20024;-92
2022/03/02 08:58:10;;;;;;;17.50;11.48;;;;;;;6.51;46.00;102362.28;5097441;28;20062;-92
2022/03/02 09:00:37;;;;;;;21.30;12.68;;;;;;;6.73;46.79;102350.94;5095658;28;20036;-90
2022/03/02 09:03:06;;;;;;;17.33;11.40;;;;;;;6.96;45.78;102360.66;5097875;28;20040;-93
2022/03/02 09:05:33;;;;;;;16.05;12.40;;;;;;;7.06;43.71;102362.06;5094315;28;20051;-91
2022/03/02 09:08:06;;;;;;;16.77;12.07;;;;;;;7.18;44.14;102356.31;5098282;28;20044;-93
2022/03/02 09:10:33;;;;;;;21.52;12.07;;;;;;;7.44;44.58;102356.22;5097850;28;20024;-92
2022/03/02 09:13:12;;;;;;;18.35;12.52;;;;;;;7.61;44.13;102340.56;5099291;28;20027;-92
2022/03/02 09:15:40;;;;;;;16.65;11.75;;;;;;;7.85;43.82;102345.78;5098805;28;20044;-91
2022/03/02 09:18:10;;;;;;;17.92;10.63;;;;;;;7.91;41.94;102340.22;5099686;28;20092;-91
2022/03/02 09:20:43;;;;;;;;;;;;;;;8.10;46.14;102356.22;5100988;28;20023;-90
2022/03/02 09:23:14;;;;;;;16.42;11.10;;;;;;;8.29;41.44;102349.22;5099866;28;19945;-91
2022/03/02 09:25:54;;;;;;;;;;;;;;;;;;;;;
2022/03/02 09:28:26;;;;;;;;;;;;;;;8.61;44.72;102346.09;5118119;28;20027;-90
2022/03/02 09:31:03;;;;;;;16.42;10.32;;;;;;;8.62;40.60;102338.09;5117578;28;19915;-90
2022/03/02 09:33:33;;;;;;;16.48;10.50;;;;;;;8.75;39.78;102345.50;5100105;28;20042;-90
2022/03/02 09:36:02;;;;;;;15.52;9.85;;;;;;;8.91;38.81;102348.31;5107064;22;20016;-59
2022/03/02 09:38:30;;;;;;;15.88;9.77;;;;;;;9.12;40.82;102335.88;5010510;28;20046;-59
2022/03/02 09:40:58;;;;;;;13.23;9.68;;;;;;;9.36;39.37;102336.50;5010689;28;20432;-59
2022/03/02 09:43:25;;;;;;;15.27;11.05;;;;;;;9.46;37.47;102343.09;5012230;28;20045;-59
2022/03/02 09:45:55;;;;;;;13.48;10.35;;;;;;;9.55;38.15;102337.34;5011445;28;20129;-60
2022/03/02 09:48:44;;;;;;;;;;;;;;;9.68;42.49;102327.00;5012783;28;20053;-59
2022/03/02 09:51:09;;;;;;;;;;;;;;;9.89;42.14;102330.41;5004374;28;19905;-59
2022/03/02 09:53:35;;;;;;;15.97;10.73;;;;;;;10.10;37.11;102324.94;5014636;28;19924;-58
2022/03/02 09:56:06;;;;;;;17.92;11.23;;;;;;;10.34;39.45;102318.41;5023084;28;20045;-58
2022/03/02 09:58:37;;;;;;;15.50;9.98;;;;;;;10.62;38.70;102310.75;5018322;28;20484;-59
2022/03/02 10:01:02;;;;;;;15.68;11.05;;;;;;;10.79;36.77;102307.19;5015741;28;20054;-59
2022/03/02 10:03:36;;;;;;;15.52;10.52;;;;;;;10.95;37.22;102312.56;5014957;28;20076;-60
2022/03/02 10:06:04;;;;;;;15.15;10.43;;;;;;;11.01;34.72;102301.59;5014559;28;20048;-60
2022/03/02 10:08:34;;;;;;;19.00;11.68;;;;;;;11.11;34.66;102310.75;5015176;28;20056;-59
2022/03/02 10:11:02;;;;;;;;;;;;;;;11.25;38.18;102308.19;5015909;28;20483;-59
2022/03/02 10:13:27;;;;;;;18.50;10.73;;;;;;;11.39;34.99;102303.88;5015000;28;19939;-59
2022/03/02 10:15:56;;;;;;;15.32;10.82;;;;;;;11.44;33.99;102309.78;5015045;28;20852;-59
2022/03/02 10:18:25;;;;;;;14.25;10.55;;;;;;;11.42;32.68;102309.03;5018903;28;20056;-59
2022/03/02 10:20:59;;;;;;;15.40;10.20;;;;;;;11.53;33.54;102314.59;5016582;28;20153;-59
2022/03/02 10:23:41;;;;;;;13.85;9.82;;;;;;;11.64;34.59;102314.84;5014914;28;20030;-59
2022/03/02 10:26:26;;;;;;;17.30;10.63;;;;;;;11.79;34.23;102306.91;5015105;28;20141;-59
2022/03/02 10:29:02;;;;;;;18.25;12.10;;;;;;;11.98;33.34;102310.25;5014805;28;20049;-59
2022/03/02 10:31:59;;;;;;;16.08;10.02;;;;;;;12.10;34.43;102299.81;5015167;28;20515;-60
2022/03/02 10:34:29;;;;;;;14.20;10.23;;;;;;;12.33;33.82;102296.63;5013679;28;20077;-60
2022/03/02 10:37:09;;;;;;;13.45;9.82;;;;;;;12.42;33.39;102297.84;5014261;28;20476;-59
2022/03/02 10:39:55;;;;;;;13.63;9.70;;;;;;;12.34;32.21;102303.66;4996696;28;20382;-59
2022/03/02 10:42:28;;;;;;;13.98;10.10;;;;;;;12.22;30.50;102285.75;5012975;28;20040;-59
2022/03/02 10:45:22;;;;;;;15.23;9.82;;;;;;;12.27;33.34;102304.13;5013712;28;20091;-59
2022/03/02 10:48:03;;;;;;;14.85;9.70;;;;;;;12.28;31.59;102296.03;5013488;28;20349;-60
2022/03/02 10:50:32;;;;;;;13.82;10.38;;;;;;;12.33;31.51;102299.28;5014608;28;20050;-59
2022/03/02 10:52:59;;;;;;;14.98;10.95;;;;;;;12.35;31.01;102308.03;5014452;28;20553;-59
2022/03/02 10:55:24;;;;;;;18.30;11.13;;;;;;;12.49;30.97;102301.88;5014117;28;20112;-59
2022/03/02 10:57:52;;;;;;;12.98;9.32;;;;;;;12.55;31.11;102301.47;5014362;28;20129;-59
2022/03/02 11:00:19;;;;;;;11.93;9.52;;;;;;;12.68;31.41;102290.06;5014412;28;20042;-59
2022/03/02 11:02:48;;;;;;;14.15;10.85;;;;;;;12.82;32.42;102290.03;5014093;28;20132;-59
2022/03/02 11:05:15;;;;;;;;;;;;;;;12.98;33.94;102295.28;5013728;28;20062;-59
2022/03/02 11:07:41;;;;;;;17.00;10.05;;;;;;;13.05;31.92;102293.06;5014446;28;19909;-59
2022/03/02 11:10:10;;;;;;;14.63;10.10;;;;;;;13.03;30.46;102287.84;5013795;28;20128;-59
2022/03/02 11:12:44;;;;;;;;;;;;;;;13.19;34.67;102282.38;5015038;28;20045;-59
2022/03/02 11:15:11;;;;;;;15.73;10.45;;;;;;;13.01;30.47;102279.09;5014200;28;19961;-59
2022/03/02 11:17:52;;;;;;;14.50;10.88;;;;;;;13.02;31.30;102275.44;5013785;28;20437;-59
2022/03/02 11:20:19;;;;;;;14.70;10.18;;;;;;;13.03;29.50;102269.16;5014905;28;20124;-59
2022/03/02 11:22:59;;;;;;;13.18;10.13;;;;;;;13.04;30.78;102268.22;5014526;28;20049;-59
2022/03/02 11:25:51;;;;;;;16.17;10.98;;;;;;;13.16;31.86;102268.41;5013539;28;20041;-59